createdAt,value
2019-04-11T00:03:53.745Z,96056.00
2019-04-11T00:08:58.579Z,96056.00
2019-04-11T00:14:01.222Z,96051.00
2019-04-11T00:19:05.223Z,96045.00
2019-04-11T00:24:08.095Z,96052.00
2019-04-11T00:29:10.371Z,96043.00
2019-04-11T00:34:13.058Z,96038.00
2019-04-11T00:39:15.720Z,96035.00
2019-04-11T00:44:20.924Z,96038.00
2019-04-11T00:49:24.871Z,96034.00
2019-04-11T00:54:28.911Z,96046.00
2019-04-11T00:59:32.210Z,96039.00
2019-04-11T01:04:37.073Z,96048.00
2019-04-11T01:09:40.241Z,96044.00
2019-04-11T01:14:43.793Z,96055.00
2019-04-11T01:19:46.881Z,96058.00
2019-04-11T01:24:50.290Z,96067.00
2019-04-11T01:29:52.827Z,96067.00
2019-04-11T01:34:57.078Z,96075.00
2019-04-11T01:40:02.002Z,96082.00
2019-04-11T01:45:05.555Z,96079.00
2019-04-11T01:50:08.460Z,96082.00
2019-04-11T01:55:12.231Z,96088.00
2019-04-11T02:00:32.826Z,96093.00
2019-04-11T02:05:35.326Z,96092.00
2019-04-11T02:10:39.142Z,96091.00
2019-04-11T02:15:41.976Z,96099.00
2019-04-11T02:20:45.204Z,96102.00
2019-04-11T02:26:22.031Z,96106.00
2019-04-11T02:31:26.181Z,96111.00
2019-04-11T02:36:30.076Z,96122.00
2019-04-11T02:41:35.909Z,96125.00
2019-04-11T02:46:48.412Z,96124.00
2019-04-11T02:51:44.861Z,96121.00
2019-04-11T02:56:50.257Z,96116.00
2019-04-11T03:01:52.985Z,96123.00
2019-04-11T03:06:55.524Z,96131.00
2019-04-11T03:11:59.082Z,96132.00
2019-04-11T03:17:10.843Z,96132.00
2019-04-11T03:22:08.088Z,96128.00
2019-04-11T03:27:11.954Z,96135.00
2019-04-11T03:33:15.144Z,96132.00
2019-04-11T03:37:47.929Z,96140.00
2019-04-11T03:42:41.610Z,96144.00
2019-04-11T03:47:40.114Z,96148.00
2019-04-11T03:52:34.737Z,96143.00
2019-04-11T03:57:39.412Z,96152.00
2019-04-11T04:02:42.263Z,96146.00
2019-04-11T04:07:44.612Z,96146.00
2019-04-11T04:12:48.095Z,96153.00
2019-04-11T04:17:59.562Z,96152.00
2019-04-11T04:23:11.887Z,96153.00
2019-04-11T04:28:15.856Z,96159.00
2019-04-11T04:33:20.316Z,96160.00
2019-04-11T04:38:23.917Z,96169.00
2019-04-11T04:43:27.447Z,96175.00
2019-04-11T04:48:32.181Z,96171.00
2019-04-11T04:53:35.678Z,96178.00
2019-04-11T04:58:39.856Z,96173.00
2019-04-11T05:03:44.531Z,96176.00
2019-04-11T05:08:47.228Z,96182.00
2019-04-11T05:13:51.734Z,96179.00
2019-04-11T05:18:54.768Z,96194.00
2019-04-11T05:23:58.503Z,96187.00
2019-04-11T05:29:01.139Z,96181.00
2019-04-11T05:34:03.525Z,96191.00
2019-04-11T05:39:08.688Z,96190.00
2019-04-11T05:44:12.527Z,96200.00
2019-04-11T05:49:42.030Z,96194.00
2019-04-11T05:54:49.778Z,96191.00
2019-04-11T05:59:54.806Z,96191.00
2019-04-11T06:05:08.926Z,96198.00
2019-04-11T06:10:21.855Z,96193.00
2019-04-11T06:15:29.185Z,96194.00
2019-04-11T06:20:39.970Z,96201.00
2019-04-11T06:26:11.019Z,96216.00
2019-04-11T06:31:35.642Z,96210.00
2019-04-11T06:37:03.641Z,96212.00
2019-04-11T06:42:27.607Z,96215.00
2019-04-11T06:48:05.286Z,96212.00
2019-04-11T06:53:09.627Z,96212.00
2019-04-11T06:58:19.266Z,96222.00
2019-04-11T07:03:28.824Z,96218.00
2019-04-11T07:08:35.243Z,96234.00
2019-04-11T07:13:53.410Z,96234.00
2019-04-11T07:19:15.580Z,96233.00
2019-04-11T07:24:41.451Z,96234.00
2019-04-11T07:30:09.611Z,96246.00
2019-04-11T07:35:32.114Z,96249.00
2019-04-11T07:41:00.568Z,96248.00
2019-04-11T07:46:24.538Z,96255.00
2019-04-11T07:51:28.683Z,96255.00
2019-04-11T07:56:48.598Z,96262.00
2019-04-11T08:02:10.296Z,96264.00
2019-04-11T08:07:38.371Z,96289.00
2019-04-11T08:12:41.430Z,96287.00
2019-04-11T08:17:46.010Z,96278.00
2019-04-11T08:22:56.958Z,96280.00
2019-04-11T08:28:04.378Z,96280.00
2019-04-11T08:33:07.419Z,96279.00
2019-04-11T08:38:16.486Z,96293.00
2019-04-11T08:43:23.834Z,96295.00
2019-04-11T08:48:28.784Z,96304.00
2019-04-11T08:53:55.017Z,96303.00
2019-04-11T08:59:43.838Z,96008.00
2019-04-11T09:05:12.007Z,96309.00
2019-04-11T09:10:28.571Z,96315.00
2019-04-11T09:15:49.120Z,96316.00
2019-04-11T09:21:09.872Z,96311.00
2019-04-11T09:26:20.427Z,96319.00
2019-04-11T09:31:43.701Z,96322.00
2019-04-11T09:37:01.012Z,96314.00
2019-04-11T09:42:32.490Z,96322.00
2019-04-11T09:47:57.711Z,96323.00
2019-04-11T09:52:58.188Z,96321.00
2019-04-11T09:58:01.338Z,96316.00
2019-04-11T10:03:23.473Z,96313.00
2019-04-11T10:08:47.424Z,96317.00
2019-04-11T10:14:15.547Z,96321.00
2019-04-11T10:19:44.715Z,96325.00
2019-04-11T10:25:19.114Z,96325.00
2019-04-11T10:30:41.959Z,96323.00
2019-04-11T10:36:19.115Z,96327.00
2019-04-11T10:41:29.008Z,96328.00
2019-04-11T10:46:56.006Z,96330.00
2019-04-11T10:52:02.412Z,96337.00
2019-04-11T10:57:24.288Z,96332.00
2019-04-11T11:02:49.807Z,96340.00
2019-04-11T11:07:59.277Z,96339.00
2019-04-11T11:13:25.730Z,96336.00
2019-04-11T11:19:14.982Z,96336.00
2019-04-11T11:24:09.220Z,96338.00
2019-04-11T11:29:47.526Z,96331.00
2019-04-11T11:35:22.453Z,96339.00
2019-04-11T11:40:41.666Z,96343.00
2019-04-11T11:46:25.734Z,96344.00
2019-04-11T11:51:51.968Z,96349.00
2019-04-11T11:56:56.477Z,96348.00
2019-04-11T12:02:08.520Z,96346.00
2019-04-11T12:07:18.840Z,96350.00
2019-04-11T12:12:48.357Z,96348.00
2019-04-11T12:18:09.878Z,96358.00
2019-04-11T12:23:27.465Z,96353.00
2019-04-11T12:29:01.705Z,96349.00
2019-04-11T12:34:36.702Z,96358.00
2019-04-11T12:39:59.643Z,96350.00
2019-04-11T12:45:20.143Z,96365.00
2019-04-11T12:50:40.717Z,96359.00
2019-04-11T12:56:02.243Z,96358.00
2019-04-11T13:01:25.722Z,96359.00
2019-04-11T13:06:46.980Z,96348.00
2019-04-11T13:11:50.308Z,96354.00
2019-04-11T13:16:54.943Z,96356.00
2019-04-11T13:22:01.597Z,96359.00
2019-04-11T13:27:29.625Z,96357.00
2019-04-11T13:33:01.734Z,96354.00
2019-04-11T13:38:10.327Z,96363.00
2019-04-11T13:43:25.504Z,96363.00
2019-04-11T13:48:45.945Z,96365.00
2019-04-11T13:54:21.763Z,96359.00
2019-04-11T13:59:42.035Z,96364.00
2019-04-11T14:04:45.742Z,96375.00
2019-04-11T14:09:49.914Z,96360.00
2019-04-11T14:15:06.262Z,96359.00
2019-04-11T14:20:30.085Z,96365.00
2019-04-11T14:25:51.439Z,96361.00
2019-04-11T14:31:28.823Z,96363.00
2019-04-11T14:36:49.172Z,96371.00
2019-04-11T14:42:12.057Z,96372.00
2019-04-11T14:47:46.636Z,96375.00
2019-04-11T14:53:06.826Z,96379.00
2019-04-11T14:58:27.475Z,96378.00
2019-04-11T15:03:39.056Z,96382.00
2019-04-11T15:08:53.947Z,96386.00
2019-04-11T15:14:06.821Z,96388.00
2019-04-11T15:19:09.307Z,96385.00
2019-04-11T15:24:14.780Z,96385.00
2019-04-11T15:29:31.035Z,96390.00
2019-04-11T15:34:39.283Z,96391.00
2019-04-11T15:40:07.240Z,96403.00
2019-04-11T15:45:26.335Z,96406.00
2019-04-11T15:50:46.968Z,96405.00
2019-04-11T15:56:07.831Z,96408.00
2019-04-11T16:01:36.372Z,96407.00
2019-04-11T16:06:59.724Z,96420.00
2019-04-11T16:12:16.467Z,96418.00
2019-04-11T16:17:38.619Z,96425.00
2019-04-11T16:23:15.759Z,96419.00
2019-04-11T16:28:38.889Z,96421.00
2019-04-11T16:34:09.883Z,96434.00
2019-04-11T16:39:32.923Z,96432.00
2019-04-11T16:44:55.199Z,96437.00
2019-04-11T16:49:58.899Z,96433.00
2019-04-11T16:55:01.271Z,96440.00
2019-04-11T17:00:09.157Z,96444.00
2019-04-11T17:05:12.645Z,96439.00
2019-04-11T17:10:17.976Z,96449.00
2019-04-11T17:15:20.926Z,96450.00
2019-04-11T17:20:23.831Z,96458.00
2019-04-11T17:25:26.256Z,96460.00
2019-04-11T17:30:29.126Z,96465.00
2019-04-11T17:35:32.233Z,96464.00
2019-04-11T17:40:35.036Z,96470.00
2019-04-11T17:45:39.332Z,96478.00
2019-04-11T17:50:43.873Z,96471.00
2019-04-11T17:55:48.377Z,96477.00
2019-04-11T18:00:54.075Z,96487.00
2019-04-11T18:05:57.522Z,96488.00
2019-04-11T18:11:01.617Z,96494.00
2019-04-11T18:16:04.116Z,96506.00
2019-04-11T18:21:07.906Z,96506.00
2019-04-11T18:26:10.778Z,96510.00
2019-04-11T18:31:13.589Z,96520.00
2019-04-11T18:36:16.179Z,96519.00
2019-04-11T18:41:20.912Z,96561.00
2019-04-11T18:46:23.674Z,96519.00
2019-04-11T18:51:26.725Z,96530.00
2019-04-11T18:56:29.972Z,96520.00
2019-04-11T19:01:39.224Z,96519.00
2019-04-11T19:06:43.013Z,96534.00
2019-04-11T19:12:22.671Z,96543.00
2019-04-11T19:17:25.497Z,96548.00
2019-04-11T19:22:37.578Z,96544.00
2019-04-11T19:27:33.126Z,96537.00
2019-04-11T19:32:37.003Z,96542.00
2019-04-11T19:37:44.372Z,96540.00
2019-04-11T19:42:51.034Z,96543.00
2019-04-11T19:53:27.982Z,96537.00
2019-04-11T19:58:31.227Z,96540.00
2019-04-11T20:03:34.467Z,96536.00
2019-04-11T20:08:37.270Z,96545.00
2019-04-11T20:13:40.122Z,96542.00
2019-04-11T20:18:50.964Z,96537.00
2019-04-11T20:23:47.502Z,96539.00
2019-04-11T20:28:50.996Z,96542.00
2019-04-11T20:33:55.042Z,96538.00
2019-04-11T20:38:58.126Z,96545.00
2019-04-11T20:44:02.015Z,96547.00
2019-04-11T20:49:05.264Z,96551.00
2019-04-11T20:54:08.389Z,96554.00
2019-04-11T20:59:11.545Z,96559.00
2019-04-11T21:04:14.340Z,96557.00
2019-04-11T21:09:16.741Z,96559.00
2019-04-11T21:14:21.045Z,96566.00
2019-04-11T21:19:23.948Z,96568.00
2019-04-11T21:24:30.538Z,96569.00
2019-04-11T21:29:31.023Z,96574.00
2019-04-11T21:34:33.603Z,96577.00
2019-04-11T21:39:36.052Z,96586.00
2019-04-11T21:44:38.474Z,96596.00
2019-04-11T21:49:40.916Z,96593.00
2019-04-11T21:54:45.388Z,96594.00
2019-04-11T21:59:51.284Z,96600.00
2019-04-11T22:04:51.860Z,96592.00
2019-04-11T22:09:54.491Z,96595.00
2019-04-11T22:14:57.566Z,96604.00
2019-04-11T22:19:59.935Z,96616.00
2019-04-11T22:25:02.371Z,96606.00
2019-04-11T22:30:10.252Z,96609.00
2019-04-11T22:35:13.353Z,96602.00
2019-04-11T22:40:15.711Z,96611.00
2019-04-11T22:45:18.185Z,96611.00
2019-04-11T22:50:20.844Z,96610.00
2019-04-11T22:55:23.672Z,96609.00
2019-04-11T23:00:29.641Z,96613.00
2019-04-11T23:05:33.356Z,96603.00
2019-04-11T23:10:36.667Z,96604.00
2019-04-11T23:21:14.235Z,96591.00
2019-04-11T23:26:18.153Z,96605.00
2019-04-11T23:31:21.116Z,96601.00
2019-04-11T23:36:23.816Z,96604.00
2019-04-11T23:41:26.221Z,96601.00
2019-04-11T23:46:28.620Z,96601.00
2019-04-11T23:51:31.018Z,96602.00
2019-04-11T23:56:34.006Z,96592.00
